createdAt,value
2022-08-16T00:02:13.051Z,21.70
2022-08-16T00:05:15.813Z,21.70
2022-08-16T00:08:35.737Z,21.70
2022-08-16T00:11:39.427Z,21.60
2022-08-16T00:14:41.358Z,21.70
2022-08-16T00:17:56.724Z,21.60
2022-08-16T00:20:59.393Z,21.60
2022-08-16T00:24:04.647Z,21.60
2022-08-16T00:27:08.514Z,21.60
2022-08-16T00:30:25.960Z,21.60
2022-08-16T00:33:31.189Z,21.60
2022-08-16T00:36:34.399Z,21.60
2022-08-16T00:39:36.524Z,21.60
2022-08-16T00:42:41.126Z,21.60
2022-08-16T00:46:22.405Z,21.70
2022-08-16T00:49:24.138Z,21.70
2022-08-16T00:52:30.043Z,21.70
2022-08-16T00:55:37.827Z,21.70
2022-08-16T00:58:44.077Z,21.50
2022-08-16T01:01:46.157Z,21.50
2022-08-16T01:05:09.086Z,21.50
2022-08-16T01:08:36.380Z,21.50
2022-08-16T01:11:36.063Z,21.50
2022-08-16T01:14:58.751Z,21.50
2022-08-16T01:18:02.183Z,21.50
2022-08-16T01:21:22.313Z,21.60
2022-08-16T01:24:51.477Z,21.60
2022-08-16T01:27:58.502Z,21.60
2022-08-16T01:31:01.874Z,21.60
2022-08-16T01:34:03.902Z,21.60
2022-08-16T01:37:10.115Z,21.60
2022-08-16T01:40:12.824Z,21.60
2022-08-16T01:43:17.864Z,21.60
2022-08-16T01:46:29.462Z,21.60
2022-08-16T01:50:40.599Z,21.70
2022-08-16T01:53:05.708Z,21.70
2022-08-16T01:56:08.092Z,21.90
2022-08-16T01:59:25.655Z,21.90
2022-08-16T02:02:28.495Z,22.00
2022-08-16T02:05:31.153Z,22.00
2022-08-16T02:08:34.299Z,22.10
2022-08-16T02:11:48.207Z,22.10
2022-08-16T02:14:54.709Z,22.10
2022-08-16T02:17:58.063Z,22.10
2022-08-16T02:21:00.147Z,22.20
2022-08-16T02:24:30.752Z,22.10
2022-08-16T02:27:26.907Z,22.10
2022-08-16T02:30:37.215Z,22.20
2022-08-16T02:33:50.251Z,22.20
2022-08-16T02:36:53.718Z,22.00
2022-08-16T02:39:57.283Z,22.10
2022-08-16T02:42:59.611Z,22.10
2022-08-16T02:46:02.790Z,22.20
2022-08-16T02:49:10.522Z,22.20
2022-08-16T02:52:17.133Z,22.20
2022-08-16T02:55:40.835Z,22.30
2022-08-16T02:58:45.356Z,22.30
2022-08-16T03:01:47.623Z,22.30
2022-08-16T03:04:52.568Z,22.30
2022-08-16T03:07:54.690Z,22.30
2022-08-16T03:10:59.113Z,22.30
2022-08-16T03:14:04.675Z,22.40
2022-08-16T03:17:09.620Z,22.40
2022-08-16T03:20:12.894Z,22.40
2022-08-16T03:23:20.140Z,22.30
2022-08-16T03:26:22.686Z,22.20
2022-08-16T03:29:29.927Z,22.10
2022-08-16T03:32:32.355Z,22.10
2022-08-16T03:35:35.934Z,22.00
2022-08-16T03:38:38.132Z,22.00
2022-08-16T03:41:50.573Z,21.90
2022-08-16T03:45:03.070Z,21.90
2022-08-16T03:48:07.231Z,21.90
2022-08-16T03:51:12.367Z,22.00
2022-08-16T03:54:15.134Z,22.00
2022-08-16T03:57:17.340Z,21.90
2022-08-16T04:00:40.750Z,21.90
2022-08-16T04:03:44.271Z,21.90
2022-08-16T04:06:46.565Z,21.90
2022-08-16T04:09:48.925Z,21.90
2022-08-16T04:12:54.626Z,21.80
2022-08-16T04:15:59.415Z,21.80
2022-08-16T04:19:04.900Z,21.80
2022-08-16T04:22:08.715Z,21.80
2022-08-16T04:25:11.758Z,21.80
2022-08-16T04:28:51.942Z,21.80
2022-08-16T04:31:36.712Z,21.80
2022-08-16T04:34:39.811Z,21.80
2022-08-16T04:37:43.064Z,21.70
2022-08-16T04:40:45.578Z,21.70
2022-08-16T04:43:51.417Z,21.80
2022-08-16T04:47:01.043Z,21.70
2022-08-16T04:50:14.453Z,21.70
2022-08-16T04:53:16.737Z,21.70
2022-08-16T04:56:21.240Z,21.70
2022-08-16T04:59:26.932Z,21.70
2022-08-16T05:02:41.842Z,21.70
2022-08-16T05:05:58.974Z,21.80
2022-08-16T05:09:04.311Z,21.80
2022-08-16T05:12:07.319Z,21.90
2022-08-16T05:15:13.374Z,21.90
2022-08-16T05:18:17.143Z,22.00
2022-08-16T05:21:24.602Z,21.90
2022-08-16T05:24:32.954Z,21.90
2022-08-16T05:27:42.699Z,21.90
2022-08-16T05:30:45.868Z,21.90
2022-08-16T05:33:54.642Z,21.90
2022-08-16T05:36:58.708Z,21.90
2022-08-16T05:40:01.156Z,22.00
2022-08-16T05:43:08.465Z,22.00
2022-08-16T05:46:30.211Z,22.00
2022-08-16T05:49:38.609Z,22.00
2022-08-16T05:52:44.938Z,21.90
2022-08-16T05:55:47.002Z,21.90
2022-08-16T05:58:49.417Z,21.80
2022-08-16T06:01:53.032Z,21.70
2022-08-16T06:04:55.622Z,21.80
2022-08-16T06:07:58.333Z,21.80
2022-08-16T06:11:10.369Z,21.80
2022-08-16T06:14:13.248Z,21.80
2022-08-16T06:17:16.921Z,21.90
2022-08-16T06:20:25.659Z,21.90
2022-08-16T06:23:37.995Z,21.90
2022-08-16T06:26:45.932Z,21.90
2022-08-16T06:29:59.653Z,21.90
2022-08-16T06:33:01.857Z,21.90
2022-08-16T06:36:05.709Z,22.00
2022-08-16T06:39:10.634Z,22.10
2022-08-16T06:42:12.557Z,22.10
2022-08-16T06:45:21.053Z,22.20
2022-08-16T06:48:32.952Z,22.30
2022-08-16T06:51:46.807Z,22.30
2022-08-16T06:54:50.579Z,22.40
2022-08-16T06:57:54.735Z,22.40
2022-08-16T07:00:58.154Z,22.30
2022-08-16T07:04:01.882Z,22.30
2022-08-16T07:07:06.146Z,22.20
2022-08-16T07:10:12.144Z,22.30
2022-08-16T07:13:26.564Z,23.00
2022-08-16T07:16:38.296Z,23.50
2022-08-16T07:20:02.548Z,24.40
2022-08-16T07:23:02.743Z,25.10
2022-08-16T07:26:25.299Z,25.20
2022-08-16T07:29:31.647Z,25.80
2022-08-16T07:32:34.024Z,26.80
2022-08-16T07:35:37.539Z,26.80
2022-08-16T07:38:46.729Z,26.40
2022-08-16T07:41:48.982Z,26.80
2022-08-16T07:44:51.753Z,27.90
2022-08-16T07:47:53.801Z,28.60
2022-08-16T07:50:59.195Z,28.40
2022-08-16T07:54:09.701Z,29.10
2022-08-16T07:57:12.701Z,29.50
2022-08-16T08:00:18.595Z,29.80
2022-08-16T08:03:20.815Z,29.20
2022-08-16T08:06:25.319Z,28.70
2022-08-16T08:09:27.317Z,28.30
2022-08-16T08:12:32.480Z,28.40
2022-08-16T08:15:38.605Z,29.40
2022-08-16T08:19:01.003Z,29.70
2022-08-16T08:22:05.890Z,30.40
2022-08-16T08:25:08.925Z,30.80
2022-08-16T08:28:15.717Z,31.20
2022-08-16T08:31:17.786Z,31.70
2022-08-16T08:34:22.261Z,32.60
2022-08-16T08:37:25.653Z,33.10
2022-08-16T08:40:29.023Z,33.40
2022-08-16T08:43:31.226Z,34.10
2022-08-16T08:46:43.933Z,34.60
2022-08-16T08:50:09.173Z,34.80
2022-08-16T08:53:13.214Z,35.20
2022-08-16T08:56:23.464Z,35.70
2022-08-16T08:59:27.917Z,36.00
2022-08-16T09:02:30.374Z,36.40
2022-08-16T09:05:35.689Z,35.90
2022-08-16T09:08:40.017Z,36.00
2022-08-16T09:12:04.422Z,36.50
2022-08-16T09:15:13.461Z,35.60
2022-08-16T09:18:26.540Z,34.70
2022-08-16T09:21:31.279Z,33.70
2022-08-16T09:24:52.064Z,32.60
2022-08-16T09:28:02.743Z,31.20
2022-08-16T09:31:14.875Z,30.30
2022-08-16T09:34:19.295Z,30.50
2022-08-16T09:37:29.138Z,30.40
2022-08-16T09:40:42.505Z,30.20
2022-08-16T09:43:59.193Z,29.30
2022-08-16T09:47:03.805Z,30.90
2022-08-16T09:50:13.917Z,32.30
2022-08-16T09:53:25.922Z,33.80
2022-08-16T09:56:30.005Z,35.10
2022-08-16T09:59:38.241Z,35.70
2022-08-16T10:02:44.237Z,35.30
2022-08-16T10:05:50.497Z,35.70
2022-08-16T10:09:05.852Z,36.50
2022-08-16T10:12:28.211Z,36.50
2022-08-16T10:15:30.498Z,35.30
2022-08-16T10:18:56.726Z,33.70
2022-08-16T10:21:56.744Z,33.00
2022-08-16T10:24:59.922Z,34.10
2022-08-16T10:28:27.942Z,34.90
2022-08-16T10:31:44.543Z,34.30
2022-08-16T10:34:48.311Z,32.60
2022-08-16T10:37:54.512Z,32.90
2022-08-16T10:40:56.671Z,33.60
2022-08-16T10:43:59.360Z,33.10
2022-08-16T10:47:02.373Z,33.70
2022-08-16T10:50:06.000Z,34.60
2022-08-16T10:53:21.591Z,35.30
2022-08-16T10:56:56.020Z,36.00
2022-08-16T10:59:52.995Z,36.70
2022-08-16T11:03:04.855Z,36.10
2022-08-16T11:06:09.581Z,35.90
2022-08-16T11:09:24.355Z,36.50
2022-08-16T11:12:30.630Z,37.00
2022-08-16T11:15:34.418Z,36.40
2022-08-16T11:18:48.685Z,36.10
2022-08-16T11:22:23.249Z,35.80
2022-08-16T11:32:11.204Z,35.70
2022-08-16T11:35:16.681Z,35.40
2022-08-16T11:38:46.789Z,34.10
2022-08-16T11:41:43.590Z,33.00
2022-08-16T11:44:52.669Z,32.70
2022-08-16T11:48:00.333Z,32.90
2022-08-16T11:51:02.941Z,32.70
2022-08-16T11:54:05.286Z,31.70
2022-08-16T11:57:12.014Z,31.40
2022-08-16T12:00:37.531Z,31.30
2022-08-16T12:03:37.047Z,31.00
2022-08-16T12:06:39.146Z,30.90
2022-08-16T12:09:43.553Z,30.10
2022-08-16T12:12:46.810Z,29.90
2022-08-16T12:15:49.256Z,29.40
2022-08-16T12:18:53.799Z,29.10
2022-08-16T12:21:58.092Z,28.70
2022-08-16T12:25:00.908Z,28.50
2022-08-16T12:28:03.703Z,29.00
2022-08-16T12:31:06.011Z,29.00
2022-08-16T12:34:09.704Z,28.90
2022-08-16T12:37:24.389Z,29.00
2022-08-16T12:40:32.934Z,28.70
2022-08-16T12:43:35.639Z,28.40
2022-08-16T12:46:38.877Z,28.00
2022-08-16T12:49:42.184Z,28.00
2022-08-16T12:52:52.335Z,28.00
2022-08-16T12:55:55.266Z,28.30
2022-08-16T12:58:57.901Z,28.30
2022-08-16T13:02:02.703Z,28.30
2022-08-16T13:05:08.388Z,28.20
2022-08-16T13:08:19.930Z,28.40
2022-08-16T13:11:30.475Z,28.50
2022-08-16T13:14:37.905Z,28.60
2022-08-16T13:17:43.196Z,28.60
2022-08-16T13:20:45.404Z,28.50
2022-08-16T13:23:47.983Z,28.30
2022-08-16T13:26:53.443Z,28.20
2022-08-16T13:29:57.553Z,28.00
2022-08-16T13:33:00.427Z,28.20
2022-08-16T13:36:05.717Z,28.50
2022-08-16T13:39:07.680Z,28.80
2022-08-16T13:42:10.639Z,28.70
2022-08-16T13:45:16.272Z,28.70
2022-08-16T13:48:19.361Z,28.30
2022-08-16T13:51:29.189Z,28.00
2022-08-16T13:54:32.940Z,27.80
2022-08-16T13:58:35.338Z,27.50
2022-08-16T14:00:57.378Z,27.50
2022-08-16T14:04:02.016Z,27.70
2022-08-16T14:07:06.621Z,27.60
2022-08-16T14:10:11.750Z,27.50
2022-08-16T14:13:20.823Z,27.70
2022-08-16T14:16:34.108Z,27.70
2022-08-16T14:19:36.824Z,27.80
2022-08-16T14:22:54.579Z,27.80
2022-08-16T14:25:58.831Z,27.90
2022-08-16T14:29:03.994Z,27.70
2022-08-16T14:32:06.738Z,27.60
2022-08-16T14:35:11.474Z,27.50
2022-08-16T14:38:23.938Z,27.40
2022-08-16T14:41:26.821Z,27.30
2022-08-16T14:44:28.980Z,27.10
2022-08-16T14:47:34.353Z,27.10
2022-08-16T14:50:37.284Z,27.20
2022-08-16T14:53:39.391Z,27.30
2022-08-16T14:56:54.873Z,27.20
2022-08-16T15:00:00.804Z,27.30
2022-08-16T15:03:09.664Z,27.30
2022-08-16T15:06:14.786Z,27.30
2022-08-16T15:09:18.540Z,27.20
2022-08-16T15:12:30.543Z,27.20
2022-08-16T15:15:35.236Z,27.10
2022-08-16T15:18:39.305Z,27.10
2022-08-16T15:21:42.494Z,27.20
2022-08-16T15:24:44.489Z,27.20
2022-08-16T15:27:55.076Z,27.20
2022-08-16T15:31:00.196Z,27.30
2022-08-16T15:34:05.117Z,27.10
2022-08-16T15:37:07.394Z,27.20
2022-08-16T15:40:16.375Z,27.10
2022-08-16T15:43:39.821Z,26.90
2022-08-16T15:46:56.646Z,26.70
2022-08-16T15:50:01.454Z,26.70
2022-08-16T15:53:12.433Z,26.60
2022-08-16T15:56:14.717Z,26.60
2022-08-16T15:59:17.524Z,26.40
2022-08-16T16:02:27.998Z,26.10
2022-08-16T16:05:33.338Z,25.90
2022-08-16T16:08:35.831Z,25.80
2022-08-16T16:11:41.361Z,25.80
2022-08-16T16:14:44.230Z,25.70
2022-08-16T16:17:51.149Z,25.60
2022-08-16T16:20:56.329Z,25.50
2022-08-16T16:24:03.114Z,25.50
2022-08-16T16:27:21.819Z,25.50
2022-08-16T16:30:33.297Z,25.60
2022-08-16T16:33:47.921Z,25.60
2022-08-16T16:36:52.546Z,25.80
2022-08-16T16:39:56.386Z,25.90
2022-08-16T16:43:00.260Z,25.70
2022-08-16T16:46:05.897Z,25.70
2022-08-16T16:49:25.635Z,25.60
2022-08-16T16:52:43.367Z,25.60
2022-08-16T16:55:52.163Z,25.40
2022-08-16T16:58:58.047Z,25.40
2022-08-16T17:02:41.691Z,25.40
2022-08-16T17:05:29.342Z,25.20
2022-08-16T17:08:35.383Z,25.40
2022-08-16T17:11:40.044Z,25.30
2022-08-16T17:14:42.665Z,25.20
2022-08-16T17:19:17.131Z,25.20
2022-08-16T17:21:07.755Z,25.20
2022-08-16T17:24:18.009Z,25.10
2022-08-16T17:27:32.932Z,25.10
2022-08-16T17:30:45.423Z,25.00
2022-08-16T17:33:54.557Z,24.90
2022-08-16T17:36:58.929Z,25.00
2022-08-16T17:40:19.255Z,24.90
2022-08-16T17:43:44.587Z,24.80
2022-08-16T17:46:52.488Z,24.80
2022-08-16T17:49:54.906Z,24.80
2022-08-16T17:52:57.306Z,24.80
2022-08-16T17:56:00.407Z,24.50
2022-08-16T17:59:02.447Z,24.40
2022-08-16T18:02:42.670Z,24.40
2022-08-16T18:05:28.570Z,24.40
2022-08-16T18:08:34.419Z,24.40
2022-08-16T18:11:43.197Z,24.40
2022-08-16T18:16:36.937Z,24.20
2022-08-16T18:19:39.141Z,24.00
2022-08-16T18:22:41.677Z,23.80
2022-08-16T18:25:44.945Z,23.70
2022-08-16T18:28:47.167Z,23.50
2022-08-16T18:31:50.984Z,23.50
2022-08-16T18:34:54.285Z,23.50
2022-08-16T18:37:56.828Z,23.50
2022-08-16T18:40:59.252Z,23.60
2022-08-16T18:44:26.311Z,23.40
2022-08-16T18:47:23.338Z,23.30
2022-08-16T18:50:25.806Z,23.20
2022-08-16T18:53:28.187Z,23.00
2022-08-16T18:56:55.744Z,23.00
2022-08-16T18:59:53.366Z,23.00
2022-08-16T19:03:02.150Z,23.00
2022-08-16T19:06:06.760Z,22.80
2022-08-16T19:09:13.069Z,22.70
2022-08-16T19:12:16.125Z,22.70
2022-08-16T19:15:22.217Z,22.60
2022-08-16T19:18:24.968Z,22.50
2022-08-16T19:21:27.093Z,22.40
2022-08-16T19:24:29.510Z,22.40
2022-08-16T19:27:33.805Z,22.40
2022-08-16T19:30:36.995Z,22.40
2022-08-16T19:33:39.674Z,22.40
2022-08-16T19:36:41.977Z,22.40
2022-08-16T19:39:44.811Z,22.40
2022-08-16T19:42:48.567Z,22.30
2022-08-16T19:45:52.414Z,22.20
2022-08-16T19:48:54.343Z,22.20
2022-08-16T19:51:56.823Z,22.00
2022-08-16T19:55:04.934Z,22.00
2022-08-16T19:58:07.067Z,21.90
2022-08-16T20:01:09.277Z,21.90
2022-08-16T20:04:12.876Z,21.80
2022-08-16T20:07:15.926Z,21.70
2022-08-16T20:10:19.080Z,21.60
2022-08-16T20:13:23.366Z,21.60
2022-08-16T20:16:25.591Z,21.60
2022-08-16T20:19:28.794Z,21.50
2022-08-16T20:23:02.457Z,21.50
2022-08-16T20:25:55.951Z,21.40
2022-08-16T20:28:57.959Z,21.40
2022-08-16T20:32:00.253Z,21.40
2022-08-16T20:35:02.874Z,21.40
2022-08-16T20:38:05.114Z,21.40
2022-08-16T20:41:07.012Z,21.30
2022-08-16T20:44:10.372Z,21.30
2022-08-16T20:47:12.583Z,21.30
2022-08-16T20:50:14.669Z,21.20
2022-08-16T20:53:16.833Z,21.10
2022-08-16T20:56:18.794Z,21.10
2022-08-16T20:59:21.069Z,21.00
2022-08-16T21:02:24.399Z,21.00
2022-08-16T21:05:31.143Z,21.00
2022-08-16T21:08:53.258Z,21.00
2022-08-16T21:12:00.882Z,21.00
2022-08-16T21:15:05.417Z,20.90
2022-08-16T21:18:07.340Z,20.90
2022-08-16T21:21:09.662Z,20.90
2022-08-16T21:24:11.712Z,20.90
2022-08-16T21:27:14.803Z,20.90
2022-08-16T21:30:20.929Z,20.90
2022-08-16T21:33:28.383Z,20.90
2022-08-16T21:36:42.411Z,20.90
2022-08-16T21:39:44.760Z,20.90
2022-08-16T21:42:47.255Z,20.90
2022-08-16T21:45:54.855Z,20.90
2022-08-16T21:48:57.970Z,20.90
2022-08-16T21:52:00.265Z,20.90
2022-08-16T21:55:04.160Z,20.80
2022-08-16T21:58:06.414Z,20.80
2022-08-16T22:01:08.563Z,20.80
2022-08-16T22:04:36.749Z,20.80
2022-08-16T22:07:33.408Z,20.70
2022-08-16T22:11:04.669Z,20.80
2022-08-16T22:14:04.411Z,20.80
2022-08-16T22:17:06.388Z,20.80
2022-08-16T22:20:09.739Z,20.90
2022-08-16T22:23:14.062Z,20.80
2022-08-16T22:26:16.101Z,20.80
2022-08-16T22:29:18.208Z,20.90
2022-08-16T22:32:20.287Z,20.80
2022-08-16T22:35:22.280Z,20.80
2022-08-16T22:38:55.846Z,20.70
2022-08-16T22:41:49.875Z,20.70
2022-08-16T22:45:12.771Z,20.60
2022-08-16T22:48:15.478Z,20.60
2022-08-16T22:51:18.169Z,20.60
2022-08-16T22:54:43.797Z,20.50
2022-08-16T22:57:43.018Z,20.60
2022-08-16T23:00:45.244Z,20.50
2022-08-16T23:03:47.184Z,20.50
2022-08-16T23:06:49.554Z,20.50
2022-08-16T23:09:51.511Z,20.50
2022-08-16T23:12:58.908Z,20.50
2022-08-16T23:16:11.224Z,20.50
2022-08-16T23:19:15.061Z,20.40
2022-08-16T23:22:17.146Z,20.40
2022-08-16T23:25:21.284Z,20.40
2022-08-16T23:28:26.180Z,20.40
2022-08-16T23:31:28.312Z,20.40
2022-08-16T23:34:30.294Z,20.40
2022-08-16T23:37:33.250Z,20.40
2022-08-16T23:40:36.365Z,20.40
2022-08-16T23:43:43.269Z,20.40
2022-08-16T23:46:47.889Z,20.40
2022-08-16T23:50:00.528Z,20.40
2022-08-16T23:53:10.330Z,20.30
2022-08-16T23:56:13.785Z,20.30
2022-08-16T23:59:15.831Z,20.30
